Time;durP1;ratioP1;P1;durP2;ratioP2;P2;SDS_P1;SDS_P2;PMS_P1;PMS_P2;Temp;Humidity;BMP_temperature;BMP_pressure;BME280_temperature;BME280_humidity;BME280_pressure;Samples;Min_cycle;Max_cycle;Signal;HPM_P1;HPM_P2
2023/08/09 00:00:50;;;;;;;;;;;18.10;51.90;;;14.02;88.68;95542.94;5011014;28;20379;-46
2023/08/09 00:03:16;;;;;;;;;;;18.10;51.90;;;14.04;89.73;95538.09;5012878;28;20526;-45
2023/08/09 00:05:42;;;;;;;;;;;18.10;51.90;;;13.95;91.12;95531.78;5011773;28;20439;-45
2023/08/09 00:08:07;;;;;;;;;;;18.10;51.90;;;13.99;91.13;95532.00;5012621;28;20003;-45
2023/08/09 00:10:36;;;;;;;;;;;18.10;52.00;;;13.96;91.00;95532.59;5012311;28;19913;-50
2023/08/09 00:13:03;;;;;;;;;;;18.10;52.00;;;13.91;92.42;95536.09;5012725;28;19909;-46
2023/08/09 00:15:29;;;;;;;;;;;18.10;52.00;;;13.86;92.63;95536.19;5012732;28;19909;-47
2023/08/09 00:17:55;;;;;;;;;;;18.00;52.10;;;13.83;92.29;95547.47;5024635;28;19909;-45
2023/08/09 00:20:22;;;;;;;;;;;18.00;52.20;;;13.80;92.50;95548.03;5002734;28;20281;-45
2023/08/09 00:22:49;;;;;;;;;;;17.90;52.20;;;13.76;92.58;95547.81;5011637;28;19916;-51
2023/08/09 00:25:15;;;;;;;;;;;17.90;52.30;;;13.71;93.50;95539.03;5012391;28;19909;-47
2023/08/09 00:27:42;;;;;;;;;;;17.90;52.40;;;13.67;94.86;95541.50;5012394;28;20007;-46
2023/08/09 00:30:11;;;;;;;;;;;17.90;52.40;;;13.56;96.32;95548.03;5011222;28;19927;-47
2023/08/09 00:32:39;;;;;;;;;;;17.80;52.40;;;13.55;96.52;95541.88;5012618;28;20156;-50
2023/08/09 00:35:05;;;;;;;;;;;17.80;52.50;;;13.58;96.66;95556.56;5026744;28;19909;-47
2023/08/09 00:37:31;;;;;;;;;;;17.80;52.60;;;13.56;95.32;95556.84;5012036;28;19940;-48
2023/08/09 00:39:57;;;;;;;;;;;17.80;52.70;;;13.56;95.63;95559.50;5012301;28;20016;-45
2023/08/09 00:42:23;;;;;;;;;;;17.70;52.70;;;13.52;97.38;95544.31;5011448;28;20296;-46
2023/08/09 00:44:50;;;;;;;;;;;17.70;52.80;;;13.49;97.91;95537.66;5012202;28;19919;-48
2023/08/09 00:47:16;;;;;;;;;;;17.70;52.90;;;13.46;98.36;95532.06;5009422;28;19944;-48
2023/08/09 00:49:44;;;;;;;;;;;17.70;53.00;;;13.41;98.94;95538.25;5027475;28;19996;-45
2023/08/09 00:52:10;;;;;;;;;;;17.60;53.00;;;13.35;98.92;95536.72;5011184;28;19917;-51
2023/08/09 00:54:39;;;;;;;;;;;17.60;53.10;;;13.34;99.63;95537.81;5010348;28;19913;-47
2023/08/09 00:57:07;;;;;;;;;;;17.50;53.10;;;13.35;99.58;95532.19;5012094;28;19931;-45
2023/08/09 00:59:33;;;;;;;;;;;17.50;53.30;;;13.36;99.57;95533.78;5011250;28;19913;-46
2023/08/09 01:01:59;;;;;;;;;;;17.50;53.30;;;13.33;99.41;95523.63;5012060;28;19909;-48
2023/08/09 01:04:26;;;;;;;;;;;17.50;53.50;;;13.32;99.01;95537.31;5009023;28;19909;-46
2023/08/09 01:07:09;;;;;;;;;;;17.50;53.50;;;13.33;97.78;95533.53;4996825;28;20268;-45
2023/08/09 01:10:00;;;;;;;;;;;17.50;53.60;;;13.34;95.80;95527.09;5014298;28;19916;-45
2023/08/09 01:12:33;;;;;;;;;;;17.50;53.60;;;13.38;96.00;95528.94;5013764;28;19936;-46
2023/08/09 01:15:03;;;;;;;;;;;17.50;53.70;;;13.41;95.03;95525.72;5015781;28;19990;-45
2023/08/09 01:17:33;;;;;;;;;;;17.50;53.70;;;13.47;93.11;95523.75;5014563;28;19916;-47
2023/08/09 01:20:10;;;;;;;;;;;17.60;53.80;;;13.53;94.42;95527.97;5014565;28;19913;-45
2023/08/09 01:22:46;;;;;;;;;;;17.60;53.80;;;13.53;94.52;95529.84;5014505;28;19913;-46
2023/08/09 01:25:12;;;;;;;;;;;17.60;53.70;;;13.54;93.52;95529.59;5004605;28;19909;-45
2023/08/09 01:27:39;;;;;;;;;;;17.60;53.70;;;13.55;92.52;95527.69;5013911;28;19920;-47
2023/08/09 01:30:08;;;;;;;;;;;17.70;53.70;;;13.56;92.55;95529.28;5014652;28;19909;-45
2023/08/09 01:32:35;;;;;;;;;;;17.70;53.70;;;13.57;91.71;95514.81;5015027;28;20338;-45
2023/08/09 01:35:01;;;;;;;;;;;17.70;53.70;;;13.59;93.29;95516.13;5012764;28;19909;-51
2023/08/09 01:37:33;;;;;;;;;;;17.70;53.70;;;13.57;90.87;95515.63;5012272;28;20020;-47
2023/08/09 01:40:08;;;;;;;;;;;17.80;53.70;;;13.59;91.70;95518.81;5051304;23;19920;-44
2023/08/09 01:42:39;;;;;;;;;;;17.80;53.70;;;13.59;91.92;95521.47;5058085;28;19916;-43
2023/08/09 01:45:08;;;;;;;;;;;17.80;53.70;;;13.60;91.00;95524.94;5068236;28;20385;-44
2023/08/09 01:47:39;;;;;;;;;;;17.80;53.80;;;13.61;91.28;95526.56;5053069;28;19919;-45
2023/08/09 01:50:24;;;;;;;;;;;17.80;53.80;;;13.62;90.69;95526.25;5068019;28;20010;-44
2023/08/09 01:52:55;;;;;;;;;;;17.80;53.70;;;13.61;90.34;95530.03;5053531;28;19958;-43
2023/08/09 01:55:24;;;;;;;;;;;17.80;53.70;;;13.62;91.25;95528.94;5054547;28;20423;-44
2023/08/09 01:57:49;;;;;;;;;;;17.80;53.70;;;13.61;90.90;95529.25;5065606;28;20419;-49
2023/08/09 02:00:19;;;;;;;;;;;17.80;53.80;;;13.63;91.50;95532.41;5049596;28;19912;-43
2023/08/09 02:02:46;;;;;;;;;;;17.80;53.80;;;13.63;90.32;95532.41;5054229;28;19908;-43
2023/08/09 02:05:12;;;;;;;;;;;17.80;53.70;;;13.63;91.35;95530.56;5053244;28;20293;-44
2023/08/09 02:07:39;;;;;;;;;;;17.80;53.70;;;13.61;91.84;95526.56;5054044;28;19908;-45
2023/08/09 02:10:07;;;;;;;;;;;17.80;53.70;;;13.55;90.48;95525.81;5054414;28;19908;-45
2023/08/09 02:12:32;;;;;;;;;;;17.80;53.70;;;13.58;91.04;95532.47;5043845;28;19919;-45
2023/08/09 02:14:58;;;;;;;;;;;17.80;53.70;;;13.62;90.64;95530.81;5057045;28;19908;-47
2023/08/09 02:17:24;;;;;;;;;;;17.80;53.80;;;13.63;90.50;95533.22;5054372;28;20278;-48
2023/08/09 02:19:49;;;;;;;;;;;17.80;53.80;;;13.62;88.75;95531.63;5053574;28;19913;-48
2023/08/09 02:22:19;;;;;;;;;;;17.80;53.80;;;13.63;90.02;95538.59;5053394;28;20439;-47
2023/08/09 02:24:45;;;;;;;;;;;17.80;53.80;;;13.63;89.49;95533.22;5052595;28;19909;-46
2023/08/09 02:27:12;;;;;;;;;;;17.80;53.80;;;13.60;90.84;95525.78;5053968;28;19909;-45
2023/08/09 02:29:38;;;;;;;;;;;17.80;53.80;;;13.60;90.74;95530.31;5051861;28;20017;-44
2023/08/09 02:32:04;;;;;;;;;;;17.80;53.80;;;13.55;89.85;95531.16;5053904;28;19943;-45
2023/08/09 02:34:30;;;;;;;;;;;17.80;54.40;;;13.53;90.59;95533.31;5053681;28;19908;-46
2023/08/09 02:36:57;;;;;;;;;;;17.80;53.80;;;13.54;90.40;95531.47;5038504;28;19912;-46
2023/08/09 02:39:24;;;;;;;;;;;17.80;54.40;;;13.52;90.60;95534.41;5053342;28;19923;-47
2023/08/09 02:41:50;;;;;;;;;;;17.80;53.80;;;13.54;90.31;95539.50;5045472;28;19955;-45
2023/08/09 02:44:16;;;;;;;;;;;17.80;53.90;;;13.53;90.33;95551.25;5053830;28;19997;-47
2023/08/09 02:46:42;;;;;;;;;;;17.80;53.90;;;13.50;91.11;95555.28;5052084;28;19918;-47
2023/08/09 02:49:08;;;;;;;;;;;17.80;54.00;;;13.50;91.13;95557.97;5051449;28;20010;-45
2023/08/09 02:51:34;;;;;;;;;;;17.80;54.00;;;13.48;91.17;95560.16;5053376;28;19916;-47
2023/08/09 02:54:03;;;;;;;;;;;17.80;54.00;;;13.47;91.13;95555.84;5052254;28;19908;-47
2023/08/09 02:56:30;;;;;;;;;;;17.80;54.00;;;13.46;91.38;95562.31;5053535;28;19908;-46
2023/08/09 02:58:58;;;;;;;;;;;17.80;54.00;;;13.43;93.27;95570.91;5052180;28;19916;-45
2023/08/09 03:01:24;;;;;;;;;;;17.80;54.00;;;13.43;93.56;95563.66;5053138;28;19920;-47
2023/08/09 03:03:51;;;;;;;;;;;17.70;54.00;;;13.46;93.85;95567.66;5053079;28;20377;-46
2023/08/09 03:06:18;;;;;;;;;;;17.70;54.10;;;13.45;93.75;95571.41;5043399;28;19915;-46
2023/08/09 03:08:48;;;;;;;;;;;17.70;54.10;;;13.39;95.35;95575.22;5052704;28;19908;-47
2023/08/09 03:11:14;;;;;;;;;;;17.70;54.10;;;13.39;95.41;95573.34;5048110;28;20366;-45
2023/08/09 03:13:40;;;;;;;;;;;17.70;54.20;;;13.40;96.08;95574.94;5044538;28;19915;-47
2023/08/09 03:16:07;;;;;;;;;;;17.70;54.20;;;13.37;96.88;95561.31;5045000;28;19933;-48
2023/08/09 03:18:33;;;;;;;;;;;17.60;54.30;;;13.36;96.84;95557.06;5056313;28;19912;-46
2023/08/09 03:20:59;;;;;;;;;;;17.60;54.40;;;13.33;97.69;95547.72;5052584;28;19920;-46
2023/08/09 03:23:25;;;;;;;;;;;17.60;54.40;;;13.31;97.80;95555.22;5046238;28;19908;-45
2023/08/09 03:25:51;;;;;;;;;;;17.50;54.50;;;13.29;97.72;95554.72;5050776;28;19914;-46
2023/08/09 03:28:17;;;;;;;;;;;17.50;54.60;;;13.28;97.27;95550.44;5052496;28;19908;-45
2023/08/09 03:30:42;;;;;;;;;;;17.50;54.60;;;13.27;95.89;95564.09;5052669;28;19954;-47
2023/08/09 03:33:08;;;;;;;;;;;17.50;54.70;;;13.28;96.82;95569.16;5052593;28;19914;-46
2023/08/09 03:35:34;;;;;;;;;;;17.50;54.70;;;13.30;96.37;95567.00;5047293;28;19934;-45
2023/08/09 03:38:00;;;;;;;;;;;17.50;54.80;;;13.31;96.35;95575.81;5044244;28;20003;-49
2023/08/09 03:40:25;;;;;;;;;;;17.50;54.80;;;13.30;96.25;95583.06;5052312;28;19917;-45
2023/08/09 03:42:51;;;;;;;;;;;17.50;54.80;;;13.30;95.93;95580.38;5050698;28;19920;-45
2023/08/09 03:45:17;;;;;;;;;;;17.50;54.80;;;13.27;96.55;95580.94;5052483;28;19908;-47
2023/08/09 03:47:43;;;;;;;;;;;17.50;55.50;;;13.27;97.16;95564.09;5050390;28;19908;-47
2023/08/09 03:50:10;;;;;;;;;;;17.50;54.90;;;13.17;95.27;95568.44;5052279;28;19908;-44
2023/08/09 03:52:36;;;;;;;;;;;17.50;54.90;;;13.22;95.77;95577.47;5052477;28;20393;-45
2023/08/09 03:55:05;;;;;;;;;;;17.50;55.00;;;13.23;95.39;95577.22;5049264;28;19966;-48
2023/08/09 03:57:31;;;;;;;;;;;17.40;55.00;;;13.22;94.74;95574.81;5051925;28;19909;-49
2023/08/09 03:59:58;;;;;;;;;;;17.40;55.00;;;13.19;94.22;95586.84;5043661;28;27844;-45
2023/08/09 04:02:24;;;;;;;;;;;17.40;55.00;;;13.18;94.53;95585.25;5051657;28;19912;-45
2023/08/09 04:04:50;;;;;;;;;;;17.40;55.00;;;13.19;93.86;95590.34;5051854;28;19912;-45
2023/08/09 04:07:16;;;;;;;;;;;17.50;55.10;;;13.21;93.95;95590.06;5052047;28;20344;-45
2023/08/09 04:09:41;;;;;;;;;;;17.50;55.10;;;13.20;94.16;95591.13;5052276;28;20336;-46
2023/08/09 04:12:08;;;;;;;;;;;17.40;55.10;;;13.22;93.86;95594.31;5043929;28;20291;-45
2023/08/09 04:14:34;;;;;;;;;;;17.50;55.10;;;13.23;93.79;95589.78;5048223;28;19923;-45
2023/08/09 04:16:59;;;;;;;;;;;17.50;55.10;;;13.23;93.94;95587.91;5048483;28;19916;-46
2023/08/09 04:19:29;;;;;;;;;;;17.50;55.10;;;13.22;93.87;95580.16;5046247;28;19946;-48
2023/08/09 04:21:55;;;;;;;;;;;17.50;55.70;;;13.20;93.92;95578.56;5052011;28;19915;-51
2023/08/09 04:24:20;;;;;;;;;;;17.50;55.10;;;13.20;94.12;95597.28;5040447;28;19908;-46
2023/08/09 04:26:46;;;;;;;;;;;17.50;55.10;;;13.19;94.11;95595.69;5051776;28;19932;-48
2023/08/09 04:29:12;;;;;;;;;;;17.50;55.10;;;13.22;93.82;95602.34;5050448;28;19909;-44
2023/08/09 04:31:38;;;;;;;;;;;17.50;55.20;;;13.30;92.93;95603.66;5051748;28;19908;-47
2023/08/09 04:34:05;;;;;;;;;;;17.50;55.20;;;13.37;93.41;95612.16;5051476;28;19962;-46
2023/08/09 04:36:31;;;;;;;;;;;17.60;55.30;;;13.41;93.43;95614.00;5050561;28;19908;-46
2023/08/09 04:38:58;;;;;;;;;;;17.60;55.30;;;13.44;93.15;95617.97;5051090;28;19916;-45
2023/08/09 04:41:24;;;;;;;;;;;17.70;55.30;;;13.44;94.37;95609.94;5044933;28;20335;-48
2023/08/09 04:43:50;;;;;;;;;;;17.70;55.20;;;13.45;94.15;95627.59;5037929;28;20007;-49
2023/08/09 04:46:16;;;;;;;;;;;17.70;55.20;;;13.46;94.68;95625.72;5055892;28;20328;-50
2023/08/09 04:48:43;;;;;;;;;;;17.80;55.20;;;13.45;95.85;95629.50;5043332;28;20314;-44
2023/08/09 04:51:10;;;;;;;;;;;17.80;55.20;;;13.43;95.96;95630.53;5055991;28;19948;-44
2023/08/09 04:53:37;;;;;;;;;;;17.80;55.20;;;13.47;95.85;95641.47;5053898;28;19961;-45
2023/08/09 04:56:04;;;;;;;;;;;17.80;55.20;;;13.48;95.70;95640.44;5055475;28;20007;-45
2023/08/09 04:58:30;;;;;;;;;;;17.80;55.20;;;13.45;98.25;95637.53;5050750;28;20286;-45
2023/08/09 05:00:57;;;;;;;;;;;17.80;55.20;;;13.49;98.04;95619.81;5053817;28;19923;-44
2023/08/09 05:03:23;;;;;;;;;;;17.80;55.20;;;13.48;98.19;95616.34;5056353;28;19908;-45
2023/08/09 05:05:49;;;;;;;;;;;17.90;55.30;;;13.45;99.19;95616.13;5054489;28;19909;-47
2023/08/09 05:08:14;;;;;;;;;;;17.80;55.30;;;13.47;99.04;95620.06;5055027;28;19914;-45
2023/08/09 05:10:40;;;;;;;;;;;17.90;55.40;;;13.52;98.68;95624.59;5054503;28;19912;-45
2023/08/09 05:13:06;;;;;;;;;;;17.90;55.40;;;13.50;98.83;95624.88;5052923;28;19931;-45
2023/08/09 05:15:32;;;;;;;;;;;17.90;55.40;;;13.58;98.84;95620.78;5055298;28;20039;-44
2023/08/09 05:17:58;;;;;;;;;;;17.90;55.50;;;13.59;99.18;95619.72;5047888;28;19961;-45
2023/08/09 05:20:24;;;;;;;;;;;18.00;55.50;;;13.60;99.74;95618.63;5054508;28;19921;-44
2023/08/09 05:22:50;;;;;;;;;;;18.00;55.50;;;13.65;99.39;95615.91;5052623;28;20018;-44
2023/08/09 05:25:17;;;;;;;;;;;18.00;55.60;;;13.64;99.13;95625.03;5046716;28;19908;-45
2023/08/09 05:27:48;;;;;;;;;;;18.00;55.60;;;13.65;98.85;95615.91;5052181;28;19915;-46
2023/08/09 05:30:15;;;;;;;;;;;18.10;55.60;;;13.70;99.46;95623.09;5053802;28;19938;-45
2023/08/09 05:32:41;;;;;;;;;;;18.10;55.60;;;13.75;99.14;95620.34;5053082;28;20278;-44
2023/08/09 05:35:08;;;;;;;;;;;18.20;55.70;;;13.78;99.46;95620.59;5053934;28;19908;-44
2023/08/09 05:37:33;;;;;;;;;;;18.20;55.60;;;13.76;99.95;95624.66;5054435;28;20270;-44
2023/08/09 05:39:59;;;;;;;;;;;18.30;55.70;;;13.85;99.98;95629.09;5053932;28;19946;-44
2023/08/09 05:42:25;;;;;;;;;;;18.30;55.70;;;13.93;99.63;95630.34;5049093;28;19977;-47
2023/08/09 05:44:51;;;;;;;;;;;18.40;55.70;;;13.98;99.56;95629.50;5053946;28;19915;-46
2023/08/09 05:47:17;;;;;;;;;;;18.40;55.70;;;14.02;99.58;95634.00;5052780;28;19908;-45
2023/08/09 05:49:42;;;;;;;;;;;18.50;55.70;;;14.08;99.44;95632.84;5054581;28;19991;-44
2023/08/09 05:52:08;;;;;;;;;;;18.50;55.70;;;14.14;99.41;95627.44;5058853;28;19908;-44
2023/08/09 05:54:34;;;;;;;;;;;18.60;55.70;;;14.12;99.96;95633.09;5056785;28;19912;-45
2023/08/09 05:57:02;;;;;;;;;;;18.70;55.70;;;14.22;100.00;95634.84;5052670;28;19912;-45
2023/08/09 05:59:28;;;;;;;;;;;18.70;55.70;;;14.30;99.47;95631.53;5048167;28;19912;-47
2023/08/09 06:01:54;;;;;;;;;;;18.80;55.70;;;14.36;99.25;95641.13;5051473;28;19916;-47
2023/08/09 06:04:20;;;;;;;;;;;18.90;55.70;;;14.42;99.22;95648.00;5053027;28;19908;-47
2023/08/09 06:06:46;;;;;;;;;;;18.90;55.70;;;14.49;98.75;95644.97;5041804;28;20278;-44
2023/08/09 06:09:12;;;;;;;;;;;19.00;55.70;;;14.56;98.23;95646.22;5052649;28;19916;-45
2023/08/09 06:11:39;;;;;;;;;;;19.10;55.70;;;14.65;97.56;95650.97;5052472;28;19916;-45
2023/08/09 06:14:05;;;;;;;;;;;19.20;55.60;;;14.69;96.99;95654.66;5048768;28;19958;-48
2023/08/09 06:16:34;;;;;;;;;;;19.20;55.60;;;14.73;95.80;95659.16;5054186;28;20378;-45
2023/08/09 06:19:00;;;;;;;;;;;19.30;55.60;;;14.78;95.53;95661.75;5047123;28;20009;-45
2023/08/09 06:21:26;;;;;;;;;;;19.30;55.50;;;14.84;95.05;95667.06;5041834;28;19956;-44
2023/08/09 06:23:52;;;;;;;;;;;19.40;55.50;;;14.90;94.94;95676.63;5043574;28;19912;-45
2023/08/09 06:26:17;;;;;;;;;;;19.40;55.70;;;14.96;94.81;95672.81;5053665;28;19916;-44
2023/08/09 06:28:43;;;;;;;;;;;19.50;55.50;;;14.99;93.96;95680.28;5052266;28;20363;-47
2023/08/09 06:31:09;;;;;;;;;;;19.50;55.50;;;15.04;94.23;95685.53;5053023;28;19908;-45
2023/08/09 06:33:41;;;;;;;;;;;19.60;55.50;;;15.10;92.78;95675.53;5051094;28;20057;-46
2023/08/09 06:36:08;;;;;;;;;;;19.60;55.40;;;15.12;92.32;95682.22;5051202;28;19908;-45
2023/08/09 06:38:34;;;;;;;;;;;19.70;55.40;;;15.19;93.43;95688.00;5053030;28;19908;-46
2023/08/09 06:40:59;;;;;;;;;;;19.80;55.40;;;15.27;93.73;95695.41;5047352;28;19920;-45
2023/08/09 06:43:25;;;;;;;;;;;19.90;55.30;;;15.34;95.25;95696.94;5053326;28;19908;-47
2023/08/09 06:45:51;;;;;;;;;;;19.80;55.30;;;15.42;95.28;95690.91;5053704;28;20332;-44
2023/08/09 06:48:17;;;;;;;;;;;19.90;55.30;;;15.46;95.28;95698.06;5052728;28;19963;-45
2023/08/09 06:50:43;;;;;;;;;;;19.90;55.30;;;15.54;94.45;95687.75;5052987;28;19952;-45
2023/08/09 06:53:09;;;;;;;;;;;20.00;55.40;;;15.58;93.48;95694.94;5050691;28;20020;-45
2023/08/09 06:55:35;;;;;;;;;;;20.00;55.30;;;15.61;94.66;95694.34;5053056;28;19965;-47
2023/08/09 06:58:00;;;;;;;;;;;20.10;55.40;;;15.62;94.71;95701.31;5053049;28;19908;-45
2023/08/09 07:00:26;;;;;;;;;;;20.20;55.40;;;15.65;95.60;95708.78;5046240;28;20001;-46
2023/08/09 07:02:52;;;;;;;;;;;20.20;55.30;;;15.75;95.66;95704.38;5051838;28;19913;-44
2023/08/09 07:05:21;;;;;;;;;;;20.30;55.30;;;15.82;94.66;95704.78;5039096;28;20397;-45
2023/08/09 07:07:52;;;;;;;;;;;20.40;55.30;;;15.84;93.24;95711.44;5046417;28;20396;-47
2023/08/09 07:10:18;;;;;;;;;;;20.40;55.30;;;15.92;92.88;95701.94;5051222;28;19943;-45
2023/08/09 07:12:44;;;;;;;;;;;20.50;55.40;;;15.94;90.70;95697.84;5048254;28;19915;-45
2023/08/09 07:15:11;;;;;;;;;;;20.50;55.30;;;15.95;88.59;95704.84;5052359;28;19908;-46
2023/08/09 07:17:38;;;;;;;;;;;20.60;55.20;;;15.93;86.97;95712.38;5047479;28;19931;-46
2023/08/09 07:20:14;;;;;;;;;;;20.60;55.10;;;16.04;89.65;95715.66;5052710;28;19919;-46
2023/08/09 07:22:46;;;;;;;;;;;20.70;55.00;;;16.15;91.13;95703.66;5052402;28;19913;-47
2023/08/09 07:25:14;;;;;;;;;;;20.80;55.00;;;16.25;90.58;95702.66;5041978;28;20063;-45
2023/08/09 07:27:46;;;;;;;;;;;20.90;55.00;;;16.35;88.15;95709.75;5042325;28;19952;-45
2023/08/09 07:30:15;;;;;;;;;;;21.10;54.90;;;16.52;89.72;95706.47;5040985;28;19944;-45
2023/08/09 07:32:41;;;;;;;;;;;21.20;54.80;;;16.61;88.20;95700.09;5046374;28;20011;-45
2023/08/09 07:35:09;;;;;;;;;;;21.40;54.70;;;16.72;88.53;95708.75;5045853;28;20011;-46
2023/08/09 07:37:38;;;;;;;;;;;21.60;54.60;;;16.87;89.44;95704.97;5059074;28;19908;-47
2023/08/09 07:40:06;;;;;;;;;;;21.80;54.50;;;16.91;85.22;95711.34;5059602;22;19924;-47
2023/08/09 07:42:32;;;;;;;;;;;21.80;54.40;;;16.96;86.38;95707.78;5035862;28;20350;-54
2023/08/09 07:45:00;;;;;;;;;;;21.80;54.30;;;17.00;83.97;95709.53;5031156;28;20007;-51
2023/08/09 07:47:26;;;;;;;;;;;21.90;54.30;;;17.03;82.75;95708.94;5040532;28;20549;-50
2023/08/09 07:49:52;;;;;;;;;;;21.90;54.20;;;17.16;84.10;95715.38;5045094;28;20035;-51
2023/08/09 07:52:18;;;;;;;;;;;22.00;54.10;;;17.26;84.07;95711.66;5032472;28;19975;-54
2023/08/09 07:54:44;;;;;;;;;;;22.10;54.00;;;17.37;84.62;95707.66;5022648;28;19908;-49
2023/08/09 07:57:10;;;;;;;;;;;22.20;53.90;;;17.45;83.53;95716.91;5023929;28;19909;-49
2023/08/09 07:59:35;;;;;;;;;;;22.30;53.90;;;17.50;81.84;95714.88;5018471;28;20371;-47
2023/08/09 08:02:01;;;;;;;;;;;22.40;53.70;;;17.57;82.54;95704.47;5032149;28;19940;-48
2023/08/09 08:04:27;;;;;;;;;;;22.60;53.60;;;17.67;81.76;95710.72;5031976;28;19986;-47
2023/08/09 08:06:52;;;;;;;;;;;22.70;53.40;;;17.78;81.22;95715.59;5025319;28;19930;-49
2023/08/09 08:09:18;;;;;;;;;;;22.90;53.40;;;17.92;80.49;95717.41;5031980;28;19919;-47
2023/08/09 08:11:44;;;;;;;;;;;23.00;53.90;;;17.95;77.39;95706.81;5031427;28;20406;-49
2023/08/09 08:14:11;;;;;;;;;;;23.10;53.00;;;18.09;77.25;95711.34;5026692;28;20302;-51
2023/08/09 08:16:37;;;;;;;;;;;23.30;52.90;;;18.07;74.63;95716.25;5032148;28;19909;-49
2023/08/09 08:19:03;;;;;;;;;;;23.30;52.60;;;18.06;72.63;95710.06;5029735;28;20383;-50
2023/08/09 08:21:29;;;;;;;;;;;23.30;52.40;;;18.03;75.08;95713.38;5032336;28;19978;-48
2023/08/09 08:23:56;;;;;;;;;;;23.30;52.10;;;18.15;74.50;95723.59;5026369;28;19974;-47
2023/08/09 08:26:23;;;;;;;;;;;23.30;52.00;;;18.22;73.41;95719.34;5023122;28;19908;-51
2023/08/09 08:28:49;;;;;;;;;;;23.40;52.00;;;18.18;72.71;95723.75;5030524;28;19916;-49
2023/08/09 08:31:19;;;;;;;;;;;23.50;51.80;;;18.40;73.39;95730.22;5026398;28;19913;-49
2023/08/09 08:33:48;;;;;;;;;;;23.60;51.60;;;18.34;72.44;95742.25;5029154;28;19909;-49
2023/08/09 08:36:13;;;;;;;;;;;23.70;51.40;;;18.43;74.30;95745.78;5019514;28;19909;-47
2023/08/09 08:38:39;;;;;;;;;;;23.70;51.20;;;18.43;70.71;95741.16;5030517;28;19957;-49
2023/08/09 08:41:05;;;;;;;;;;;23.70;51.20;;;18.45;69.60;95733.53;5030332;28;20294;-49
2023/08/09 08:43:31;;;;;;;;;;;23.70;51.00;;;18.35;69.77;95730.34;5035211;28;19908;-51
2023/08/09 08:45:59;;;;;;;;;;;23.80;50.70;;;18.32;68.74;95736.34;5036394;28;19963;-47
2023/08/09 08:48:25;;;;;;;;;;;23.80;50.50;;;18.40;69.25;95728.31;5039095;28;19927;-48
2023/08/09 08:50:55;;;;;;;;;;;23.90;50.40;;;18.43;68.37;95729.59;5048265;28;19908;-48
2023/08/09 08:53:21;;;;;;;;;;;23.90;50.30;;;18.33;68.15;95722.53;5032460;28;20422;-52
2023/08/09 08:55:47;;;;;;;;;;;23.90;50.20;;;18.41;67.88;95715.63;5031535;28;20000;-52
2023/08/09 08:58:14;;;;;;;;;;;23.90;50.10;;;18.49;68.71;95709.47;5029234;28;19909;-50
2023/08/09 09:00:40;;;;;;;;;;;23.90;50.00;;;18.49;67.10;95712.16;5026081;28;19963;-53
2023/08/09 09:03:06;;;;;;;;;;;23.90;49.80;;;18.63;66.73;95712.84;5027105;28;19912;-49
2023/08/09 09:05:32;;;;;;;;;;;23.90;49.70;;;18.70;67.02;95710.47;5024798;28;20390;-48
2023/08/09 09:07:58;;;;;;;;;;;24.00;49.60;;;18.75;66.96;95711.50;5026210;28;19916;-52
2023/08/09 09:10:25;;;;;;;;;;;24.10;49.60;;;18.64;66.94;95711.72;5031742;28;19908;-52
2023/08/09 09:12:53;;;;;;;;;;;24.10;49.40;;;18.80;66.95;95712.13;5029512;28;19909;-51
2023/08/09 09:15:20;;;;;;;;;;;24.20;49.30;;;18.89;65.95;95710.22;5024483;28;19936;-47
2023/08/09 09:17:48;;;;;;;;;;;24.20;49.20;;;18.91;65.41;95712.63;5031489;28;19915;-51
2023/08/09 09:20:29;;;;;;;;;;;24.40;49.00;;;18.95;65.52;95708.97;5031597;28;19920;-48
2023/08/09 09:22:55;;;;;;;;;;;24.40;48.90;;;19.01;66.31;95711.53;5029574;28;19913;-49
2023/08/09 09:25:23;;;;;;;;;;;24.50;48.70;;;19.11;65.10;95695.81;5024039;28;19909;-51
2023/08/09 09:27:54;;;;;;;;;;;24.60;48.60;;;19.25;64.21;95703.78;5031316;28;19920;-50
2023/08/09 09:30:24;;;;;;;;;;;24.70;48.40;;;19.40;63.70;95699.84;5020946;28;20326;-51
2023/08/09 09:33:00;;;;;;;;;;;24.80;48.20;;;19.29;63.74;95709.34;5042445;28;19908;-48
2023/08/09 09:35:32;;;;;;;;;;;25.00;47.90;;;19.55;63.97;95712.84;5048195;28;19909;-48
2023/08/09 09:38:00;;;;;;;;;;;25.20;47.90;;;19.64;62.17;95710.16;5031320;28;19909;-49
2023/08/09 09:40:33;;;;;;;;;;;25.30;47.70;;;19.67;62.02;95712.22;5037476;28;19917;-47
2023/08/09 09:43:01;;;;;;;;;;;25.30;47.50;;;19.79;61.68;95711.59;5025814;28;19912;-48
2023/08/09 09:45:29;;;;;;;;;;;25.40;47.40;;;19.94;61.36;95707.59;5034917;28;19909;-48
2023/08/09 09:48:01;;;;;;;;;;;25.50;47.10;;;20.18;61.63;95707.88;5035883;28;20011;-48
2023/08/09 09:50:31;;;;;;;;;;;25.70;47.00;;;20.45;60.85;95700.44;5027773;28;20410;-49
2023/08/09 09:52:57;;;;;;;;;;;26.00;47.00;;;20.78;58.99;95692.53;5020018;28;19908;-49
2023/08/09 09:55:28;;;;;;;;;;;26.40;46.80;;;21.05;58.54;95693.94;5028642;28;19936;-50
2023/08/09 09:57:56;;;;;;;;;;;26.80;46.50;;;21.26;55.66;95683.91;5042101;28;19908;-47
2023/08/09 10:00:25;;;;;;;;;;;27.30;45.80;;;21.40;53.60;95682.88;5040566;28;19913;-50
2023/08/09 10:02:53;;;;;;;;;;;27.70;45.20;;;21.60;54.29;95684.81;5033975;28;20388;-50
2023/08/09 10:05:35;;;;;;;;;;;28.00;44.90;;;21.73;54.32;95682.94;5031706;28;19917;-51
2023/08/09 10:08:08;;;;;;;;;;;28.10;44.30;;;22.06;51.75;95677.50;5034784;28;20375;-49
2023/08/09 10:10:38;;;;;;;;;;;28.40;44.00;;;22.26;50.90;95684.00;5034372;28;19908;-51
2023/08/09 10:13:07;;;;;;;;;;;28.80;44.00;;;22.38;50.51;95686.75;5033349;28;19931;-48
2023/08/09 10:16:05;;;;;;;;;;;29.30;42.50;;;22.90;50.89;95681.75;5034299;28;20294;-49
2023/08/09 10:18:43;;;;;;;;;;;29.80;41.70;;;23.30;49.00;95674.47;5028642;28;19909;-48
2023/08/09 10:21:13;;;;;;;;;;;30.50;41.00;;;23.75;48.90;95683.53;5053979;28;19921;-51
2023/08/09 10:23:39;;;;;;;;;;;31.00;40.20;;;24.09;46.74;95693.00;5033399;28;20349;-50
2023/08/09 10:26:04;;;;;;;;;;;31.30;40.10;;;24.17;45.17;95691.28;5034197;28;19913;-51
2023/08/09 10:28:43;;;;;;;;;;;31.60;39.90;;;24.36;44.78;95690.59;5034186;28;19931;-53
2023/08/09 10:31:09;;;;;;;;;;;31.80;39.60;;;24.51;45.46;95689.84;5033208;28;20026;-48
2023/08/09 10:33:35;;;;;;;;;;;31.80;39.30;;;24.62;45.32;95695.53;5033030;28;19944;-53
2023/08/09 10:36:01;;;;;;;;;;;31.90;39.20;;;24.58;43.97;95694.66;5024072;28;19956;-50
2023/08/09 10:38:32;;;;;;;;;;;31.90;39.10;;;24.61;45.88;95697.47;5034022;28;19915;-54
2023/08/09 10:41:08;;;;;;;;;;;31.90;38.80;;;24.64;45.11;95696.75;5031174;28;19978;-54
2023/08/09 10:43:34;;;;;;;;;;;31.90;38.60;;;24.79;43.88;95703.34;5023543;28;20435;-52
2023/08/09 10:46:23;;;;;;;;;;;32.00;38.50;;;24.64;43.26;95702.22;5033698;28;19944;-50
2023/08/09 10:48:51;;;;;;;;;;;32.10;38.30;;;24.54;45.02;95697.28;5029962;28;19919;-52
2023/08/09 10:51:19;;;;;;;;;;;32.10;38.10;;;24.55;45.06;95690.69;5033573;28;19909;-48
2023/08/09 10:54:03;;;;;;;;;;;32.10;37.70;;;25.08;44.53;95695.84;5024746;28;19952;-52
2023/08/09 10:56:35;;;;;;;;;;;32.20;37.70;;;24.89;44.51;95682.94;5022662;28;19950;-50
2023/08/09 10:59:07;;;;;;;;;;;32.50;37.40;;;24.94;43.88;95682.66;5031414;28;19920;-55
2023/08/09 11:01:38;;;;;;;;;;;32.70;37.20;;;25.53;42.37;95683.56;5024073;28;19920;-54
2023/08/09 11:04:09;;;;;;;;;;;33.00;37.30;;;25.86;42.36;95672.19;5032967;28;19928;-56
2023/08/09 11:06:47;;;;;;;;;;;33.50;37.00;;;25.90;42.59;95681.22;5030307;28;19909;-51
2023/08/09 11:09:14;;;;;;;;;;;33.90;36.50;;;26.27;40.69;95684.25;5020660;28;20299;-55
2023/08/09 11:11:42;;;;;;;;;;;34.10;36.20;;;26.09;42.60;95680.41;5026496;28;20334;-51
2023/08/09 11:14:10;;;;;;;;;;;34.10;35.40;;;26.66;40.78;95677.91;5023124;28;20268;-56
2023/08/09 11:16:37;;;;;;;;;;;34.20;35.60;;;26.88;39.74;95682.53;5032935;28;19927;-51
2023/08/09 11:19:08;;;;;;;;;;;34.40;35.60;;;26.86;40.44;95684.88;5031997;28;19912;-51